createdAt,value
2022-11-14T00:00:18.817Z,8.551
2022-11-14T00:01:18.719Z,8.562
2022-11-14T00:02:18.428Z,8.541
2022-11-14T00:03:18.045Z,8.541
2022-11-14T00:04:17.399Z,8.5
2022-11-14T00:05:17.758Z,8.510
2022-11-14T00:06:17.924Z,8.510
2022-11-14T00:07:18.421Z,8.510
2022-11-14T00:08:17.506Z,8.5
2022-11-14T00:09:17.888Z,8.5
2022-11-14T00:10:18.286Z,8.5
2022-11-14T00:11:17.969Z,8.5
2022-11-14T00:12:18.279Z,8.479
2022-11-14T00:13:17.647Z,8.5
2022-11-14T00:14:17.986Z,8.5
2022-11-14T00:15:17.748Z,8.5
2022-11-14T00:16:18.185Z,8.489
2022-11-14T00:17:17.661Z,8.468
2022-11-14T00:18:18.191Z,8.479
2022-11-14T00:19:17.854Z,8.437
2022-11-14T00:20:18.492Z,8.489
2022-11-14T00:21:17.759Z,8.489
2022-11-14T00:22:18.289Z,8.5
2022-11-14T00:23:17.773Z,8.5
2022-11-14T00:24:18.333Z,8.458
2022-11-14T00:25:18.102Z,8.447
2022-11-14T00:26:17.694Z,8.458
2022-11-14T00:27:18.139Z,8.437
2022-11-14T00:28:17.502Z,8.437
2022-11-14T00:29:17.923Z,8.437
2022-11-14T00:30:18.512Z,8.437
2022-11-14T00:31:18.128Z,8.437
2022-11-14T00:32:17.807Z,8.437
2022-11-14T00:33:25.126Z,8.437
2022-11-14T00:34:17.504Z,8.437
2022-11-14T00:35:18.035Z,8.437
2022-11-14T00:36:17.988Z,8.416
2022-11-14T00:37:17.516Z,8.375
2022-11-14T00:38:17.720Z,8.375
2022-11-14T00:39:18.022Z,8.406
2022-11-14T00:40:17.391Z,8.385
2022-11-14T00:41:17.541Z,8.375
2022-11-14T00:42:18.053Z,8.375
2022-11-14T00:43:17.667Z,8.375
2022-11-14T00:44:17.921Z,8.375
2022-11-14T00:45:18.291Z,8.375
2022-11-14T00:46:17.616Z,8.343
2022-11-14T00:47:17.979Z,8.333
2022-11-14T00:48:18.282Z,8.375
2022-11-14T00:49:17.766Z,8.354
2022-11-14T00:50:18.310Z,8.354
2022-11-14T00:51:17.948Z,8.333
2022-11-14T00:52:18.154Z,8.333
2022-11-14T00:53:17.407Z,8.364
2022-11-14T00:54:17.667Z,8.312
2022-11-14T00:55:18.263Z,8.312
2022-11-14T00:56:17.835Z,8.322
2022-11-14T00:57:18.164Z,8.375
2022-11-14T00:58:17.482Z,8.343
2022-11-14T00:59:17.922Z,8.312
2022-11-14T01:00:18.985Z,8.322
2022-11-14T01:01:20.030Z,8.354
2022-11-14T01:02:17.569Z,8.312
2022-11-14T01:03:18.229Z,8.312
2022-11-14T01:04:17.652Z,8.333
2022-11-14T01:05:18.584Z,8.322
2022-11-14T01:06:18.002Z,8.312
2022-11-14T01:07:17.585Z,8.270
2022-11-14T01:08:17.997Z,8.301
2022-11-14T01:09:17.774Z,8.270
2022-11-14T01:10:18.293Z,8.299
2022-11-14T01:11:17.732Z,8.312
2022-11-14T01:12:18.087Z,8.312
2022-11-14T01:13:17.910Z,8.312
2022-11-14T01:14:18.078Z,8.312
2022-11-14T01:15:17.919Z,8.312
2022-11-14T01:16:18.214Z,8.312
2022-11-14T01:17:17.465Z,8.312
2022-11-14T01:18:18.030Z,8.312
2022-11-14T01:19:17.449Z,8.312
2022-11-14T01:20:18.092Z,8.301
2022-11-14T01:21:17.640Z,8.312
2022-11-14T01:22:17.839Z,8.312
2022-11-14T01:23:18.518Z,8.312
2022-11-14T01:24:18.298Z,8.291
2022-11-14T01:25:18.078Z,8.312
2022-11-14T01:26:17.662Z,8.287
2022-11-14T01:27:18.123Z,8.260
2022-11-14T01:28:17.440Z,8.270
2022-11-14T01:29:17.480Z,8.260
2022-11-14T01:30:45.682Z,8.312
2022-11-14T01:31:17.817Z,8.312
2022-11-14T01:32:18.212Z,8.312
2022-11-14T01:33:17.510Z,8.312
2022-11-14T01:34:17.719Z,8.291
2022-11-14T01:35:18.100Z,8.301
2022-11-14T01:36:17.518Z,8.281
2022-11-14T01:37:17.903Z,8.281
2022-11-14T01:38:18.266Z,8.301
2022-11-14T01:39:17.972Z,8.25
2022-11-14T01:40:18.479Z,8.281
2022-11-14T01:41:18.111Z,8.301
2022-11-14T01:42:17.813Z,8.25
2022-11-14T01:43:17.485Z,8.25
2022-11-14T01:44:17.942Z,8.260
2022-11-14T01:45:18.302Z,8.260
2022-11-14T01:46:17.662Z,8.291
2022-11-14T01:47:18.131Z,8.260
2022-11-14T01:48:17.609Z,8.312
2022-11-14T01:49:17.942Z,8.312
2022-11-14T01:50:18.355Z,8.312
2022-11-14T01:51:17.773Z,8.281
2022-11-14T01:52:18.117Z,8.270
2022-11-14T01:53:17.901Z,8.270
2022-11-14T01:54:18.213Z,8.260
2022-11-14T01:55:17.914Z,8.25
2022-11-14T01:56:18.437Z,8.25
2022-11-14T01:57:18.071Z,8.25
2022-11-14T01:58:17.549Z,8.25
2022-11-14T01:59:17.817Z,8.208
2022-11-14T02:00:19.333Z,8.187
2022-11-14T02:01:17.997Z,8.25
2022-11-14T02:02:17.500Z,8.229
2022-11-14T02:03:17.972Z,8.25
2022-11-14T02:04:21.644Z,8.229
2022-11-14T02:05:18.320Z,8.239
2022-11-14T02:06:18.514Z,8.218
2022-11-14T02:07:18.071Z,8.187
2022-11-14T02:08:17.643Z,8.187
2022-11-14T02:09:18.343Z,8.187
2022-11-14T02:10:18.093Z,8.187
2022-11-14T02:11:16.281Z,8.187
2022-11-14T02:12:17.716Z,8.145
2022-11-14T02:13:17.950Z,8.187
2022-11-14T02:14:18.048Z,8.187
2022-11-14T02:15:17.768Z,8.187
2022-11-14T02:16:17.980Z,8.176
2022-11-14T02:17:37.022Z,8.125
2022-11-14T02:18:17.845Z,8.125
2022-11-14T02:19:18.390Z,8.125
2022-11-14T02:20:18.168Z,8.125
2022-11-14T02:21:17.472Z,8.125
2022-11-14T02:22:17.897Z,8.125
2022-11-14T02:23:18.281Z,8.125
2022-11-14T02:24:17.698Z,8.125
2022-11-14T02:25:18.403Z,8.125
2022-11-14T02:26:18.083Z,8.125
2022-11-14T02:27:17.666Z,8.125
2022-11-14T02:28:18.372Z,8.125
2022-11-14T02:29:17.697Z,8.125
2022-11-14T02:30:18.565Z,8.093
2022-11-14T02:31:18.086Z,8.072
2022-11-14T02:32:17.701Z,8.062
2022-11-14T02:33:18.512Z,8.093
2022-11-14T02:34:17.927Z,8.062
2022-11-14T02:35:18.105Z,8.062
2022-11-14T02:36:17.492Z,8.010
2022-11-14T02:37:17.885Z,8
2022-11-14T02:38:18.277Z,8.041
2022-11-14T02:39:17.664Z,8.020
2022-11-14T02:40:17.927Z,8
2022-11-14T02:41:18.333Z,8.031
2022-11-14T02:42:17.800Z,8.020
2022-11-14T02:43:18.090Z,8.031
2022-11-14T02:44:17.301Z,8.051
2022-11-14T02:45:17.739Z,8.031
2022-11-14T02:46:18.172Z,8
2022-11-14T02:47:17.650Z,8
2022-11-14T02:48:18.279Z,7.962
2022-11-14T02:49:17.623Z,7.991
2022-11-14T02:50:18.320Z,8
2022-11-14T02:51:17.427Z,8
2022-11-14T02:52:17.742Z,8
2022-11-14T02:53:18.127Z,8
2022-11-14T02:54:17.369Z,8
2022-11-14T02:55:17.783Z,8
2022-11-14T02:56:18.024Z,8
2022-11-14T02:57:17.284Z,7.964
2022-11-14T02:58:17.800Z,7.962
2022-11-14T02:59:18.079Z,7.989
2022-11-14T03:00:21.742Z,8
2022-11-14T03:01:27.716Z,7.936
2022-11-14T03:02:18.307Z,7.936
2022-11-14T03:03:17.866Z,7.968
2022-11-14T03:04:18.315Z,7.958
2022-11-14T03:05:17.883Z,7.958
2022-11-14T03:06:18.158Z,7.947
2022-11-14T03:07:17.547Z,7.979
2022-11-14T03:08:18.755Z,7.947
2022-11-14T03:09:18.408Z,7.936
2022-11-14T03:10:17.877Z,7.936
2022-11-14T03:11:18.294Z,7.936
2022-11-14T03:12:17.468Z,7.936
2022-11-14T03:13:17.826Z,7.936
2022-11-14T03:14:17.870Z,7.916
2022-11-14T03:15:18.686Z,7.916
2022-11-14T03:16:18.292Z,7.895
2022-11-14T03:17:17.954Z,7.885
2022-11-14T03:18:18.587Z,7.822
2022-11-14T03:19:18.021Z,7.875
2022-11-14T03:20:17.499Z,7.854
2022-11-14T03:21:18.032Z,7.875
2022-11-14T03:22:17.756Z,7.875
2022-11-14T03:23:18.160Z,7.875
2022-11-14T03:24:17.785Z,7.875
2022-11-14T03:25:18.138Z,7.822
2022-11-14T03:26:17.450Z,7.770
2022-11-14T03:27:18.013Z,7.811
2022-11-14T03:28:17.537Z,7.811
2022-11-14T03:29:17.794Z,7.811
2022-11-14T03:30:18.275Z,7.833
2022-11-14T03:31:17.668Z,7.854
2022-11-14T03:32:18.031Z,7.875
2022-11-14T03:33:17.403Z,7.906
2022-11-14T03:34:17.937Z,7.895
2022-11-14T03:35:18.327Z,7.875
2022-11-14T03:36:18.043Z,7.875
2022-11-14T03:37:17.746Z,7.875
2022-11-14T03:38:18.371Z,7.875
2022-11-14T03:39:17.856Z,7.875
2022-11-14T03:40:17.860Z,7.885
2022-11-14T03:41:18.266Z,7.926
2022-11-14T03:42:17.742Z,7.906
2022-11-14T03:43:17.941Z,7.936
2022-11-14T03:44:18.064Z,7.906
2022-11-14T03:45:17.402Z,7.885
2022-11-14T03:46:17.678Z,7.895
2022-11-14T03:47:17.516Z,7.875
2022-11-14T03:48:17.895Z,7.906
2022-11-14T03:49:18.337Z,7.875
2022-11-14T03:50:17.680Z,7.875
2022-11-14T03:51:18.007Z,7.895
2022-11-14T03:52:17.285Z,7.875
2022-11-14T03:53:17.963Z,7.875
2022-11-14T03:54:18.465Z,7.875
2022-11-14T03:55:17.989Z,7.885
2022-11-14T03:56:17.669Z,7.875
2022-11-14T03:57:18.234Z,7.885
2022-11-14T03:58:17.281Z,7.936
2022-11-14T03:59:17.419Z,7.895
2022-11-14T04:00:19.010Z,7.906
2022-11-14T04:01:17.697Z,7.875
2022-11-14T04:02:18.207Z,7.906
2022-11-14T04:03:17.479Z,7.936
2022-11-14T04:04:18.018Z,7.936
2022-11-14T04:05:17.643Z,7.947
2022-11-14T04:06:18.179Z,7.968
2022-11-14T04:07:17.668Z,7.958
2022-11-14T04:08:18.128Z,8
2022-11-14T04:09:17.722Z,7.989
2022-11-14T04:10:18.129Z,8
2022-11-14T04:11:18.085Z,7.989
2022-11-14T04:12:21.940Z,8
2022-11-14T04:13:18.297Z,8
2022-11-14T04:14:17.515Z,8
2022-11-14T04:15:17.870Z,8
2022-11-14T04:16:18.136Z,8
2022-11-14T04:17:17.837Z,8
2022-11-14T04:18:18.035Z,8
2022-11-14T04:19:18.164Z,8
2022-11-14T04:20:17.836Z,8
2022-11-14T04:21:18.343Z,8
2022-11-14T04:22:17.892Z,8
2022-11-14T04:23:18.281Z,8
2022-11-14T04:24:17.983Z,8
2022-11-14T04:25:17.480Z,8
2022-11-14T04:26:18.070Z,8
2022-11-14T04:27:17.471Z,8
2022-11-14T04:28:17.833Z,8
2022-11-14T04:29:18.366Z,8
2022-11-14T04:30:17.992Z,8
2022-11-14T04:31:17.508Z,8
2022-11-14T04:32:17.824Z,8
2022-11-14T04:33:18.634Z,8
2022-11-14T04:34:18.258Z,8
2022-11-14T04:35:17.864Z,8
2022-11-14T04:36:18.249Z,8
2022-11-14T04:37:17.726Z,7.989
2022-11-14T04:38:18.434Z,7.958
2022-11-14T04:39:18.192Z,8
2022-11-14T04:40:17.679Z,8
2022-11-14T04:41:17.984Z,7.958
2022-11-14T04:42:17.646Z,7.936
2022-11-14T04:43:18.000Z,7.936
2022-11-14T04:44:17.420Z,7.947
2022-11-14T04:45:18.263Z,7.936
2022-11-14T04:46:17.488Z,7.936
2022-11-14T04:47:18.019Z,7.936
2022-11-14T04:48:17.156Z,7.906
2022-11-14T04:49:17.639Z,7.906
2022-11-14T04:50:18.706Z,7.885
2022-11-14T04:51:18.169Z,7.916
2022-11-14T04:52:17.494Z,7.926
2022-11-14T04:53:18.071Z,7.875
2022-11-14T04:54:17.786Z,7.875
2022-11-14T04:55:18.106Z,7.875
2022-11-14T04:56:17.633Z,7.885
2022-11-14T04:57:18.129Z,7.875
2022-11-14T04:58:17.736Z,7.916
2022-11-14T04:59:23.440Z,7.875
2022-11-14T05:00:18.760Z,7.875
2022-11-14T05:01:18.670Z,7.885
2022-11-14T05:02:18.368Z,7.906
2022-11-14T05:03:18.161Z,7.936
2022-11-14T05:04:17.593Z,7.936
2022-11-14T05:05:18.248Z,7.936
2022-11-14T05:06:17.978Z,7.936
2022-11-14T05:07:18.808Z,7.936
2022-11-14T05:08:18.202Z,7.936
2022-11-14T05:09:17.813Z,7.906
2022-11-14T05:10:18.498Z,7.916
2022-11-14T05:11:18.096Z,7.916
2022-11-14T05:12:17.224Z,7.895
2022-11-14T05:13:17.701Z,7.875
2022-11-14T05:14:17.280Z,7.875
2022-11-14T05:15:18.374Z,7.885
2022-11-14T05:16:17.630Z,7.936
2022-11-14T05:17:18.138Z,7.926
2022-11-14T05:18:17.367Z,7.875
2022-11-14T05:19:17.693Z,7.885
2022-11-14T05:20:18.237Z,7.885
2022-11-14T05:21:17.634Z,7.926
2022-11-14T05:22:18.166Z,7.875
2022-11-14T05:23:17.490Z,7.843
2022-11-14T05:24:17.664Z,7.864
2022-11-14T05:25:18.432Z,7.864
2022-11-14T05:26:18.131Z,7.875
2022-11-14T05:27:17.471Z,7.875
2022-11-14T05:29:18.119Z,7.875
2022-11-14T05:31:17.600Z,7.811
2022-11-14T05:33:18.115Z,7.854
2022-11-14T05:34:17.838Z,7.875
2022-11-14T05:35:18.437Z,7.875
2022-11-14T05:36:17.863Z,7.875
2022-11-14T05:37:18.197Z,7.875
2022-11-14T05:38:17.679Z,7.875
2022-11-14T05:39:18.308Z,7.895
2022-11-14T05:40:18.125Z,7.885
2022-11-14T05:41:17.878Z,7.875
2022-11-14T05:42:18.104Z,7.895
2022-11-14T05:43:17.910Z,7.906
2022-11-14T05:44:18.135Z,7.936
2022-11-14T05:45:17.936Z,7.936
2022-11-14T05:46:18.276Z,7.936
2022-11-14T05:47:17.843Z,7.936
2022-11-14T05:48:18.593Z,7.947
2022-11-14T05:49:21.827Z,7.936
2022-11-14T05:50:18.117Z,7.936
2022-11-14T05:51:19.133Z,7.936
2022-11-14T05:52:17.960Z,7.958
2022-11-14T05:53:18.944Z,7.958
2022-11-14T05:54:18.392Z,8
2022-11-14T05:55:24.236Z,8
2022-11-14T05:56:18.075Z,8
2022-11-14T05:57:18.092Z,8
2022-11-14T05:58:17.529Z,8
2022-11-14T05:59:17.709Z,8
2022-11-14T06:00:19.483Z,8
2022-11-14T06:01:18.222Z,8
2022-11-14T06:02:17.984Z,8
2022-11-14T06:03:17.549Z,8
2022-11-14T06:04:18.182Z,8
2022-11-14T06:05:17.932Z,8
2022-11-14T06:06:17.955Z,8
2022-11-14T06:07:25.559Z,8
2022-11-14T06:08:18.172Z,8
2022-11-14T06:09:17.586Z,8
2022-11-14T06:10:18.382Z,8
2022-11-14T06:11:18.122Z,8
2022-11-14T06:12:36.850Z,8
2022-11-14T06:13:18.119Z,8
2022-11-14T06:14:18.255Z,8
2022-11-14T06:15:18.433Z,8
2022-11-14T06:16:18.495Z,8
2022-11-14T06:17:18.075Z,8
2022-11-14T06:18:17.634Z,8
2022-11-14T06:19:18.352Z,8
2022-11-14T06:20:17.989Z,8
2022-11-14T06:21:17.865Z,7.979
2022-11-14T06:22:18.241Z,8
2022-11-14T06:23:23.437Z,8
2022-11-14T06:24:18.223Z,8
2022-11-14T06:25:18.424Z,7.968
2022-11-14T06:26:17.710Z,7.968
2022-11-14T06:27:17.971Z,8
2022-11-14T06:28:19.109Z,8
2022-11-14T06:29:17.813Z,7.958
2022-11-14T06:30:18.529Z,7.936
2022-11-14T06:31:18.180Z,7.979
2022-11-14T06:32:17.874Z,7.936
2022-11-14T06:33:18.419Z,7.979
2022-11-14T06:34:17.767Z,7.947
2022-11-14T06:35:18.480Z,7.936
2022-11-14T06:36:18.220Z,7.968
2022-11-14T06:37:17.689Z,7.936
2022-11-14T06:38:18.464Z,7.936
2022-11-14T06:39:18.139Z,7.936
2022-11-14T06:40:17.455Z,7.958
2022-11-14T06:41:17.997Z,7.989
2022-11-14T06:42:18.012Z,7.989
2022-11-14T06:43:18.337Z,7.979
2022-11-14T06:44:17.819Z,8
2022-11-14T06:45:19.168Z,8
2022-11-14T06:46:18.213Z,8
2022-11-14T06:47:18.175Z,8
2022-11-14T06:48:17.628Z,8
2022-11-14T06:49:18.140Z,8
2022-11-14T06:50:17.535Z,8
2022-11-14T06:51:18.013Z,8
2022-11-14T06:52:17.460Z,8
2022-11-14T06:53:18.027Z,7.989
2022-11-14T06:54:23.611Z,7.936
2022-11-14T06:55:25.272Z,7.936
2022-11-14T06:56:20.607Z,7.936
2022-11-14T06:57:18.648Z,7.936
2022-11-14T06:58:22.199Z,7.989
2022-11-14T06:59:20.036Z,7.936
2022-11-14T07:00:20.216Z,7.979
2022-11-14T07:01:20.212Z,8
2022-11-14T07:02:21.652Z,8
2022-11-14T07:03:19.153Z,8
2022-11-14T07:04:21.466Z,8
2022-11-14T07:05:20.486Z,8
2022-11-14T07:06:18.986Z,8.020
2022-11-14T07:07:23.017Z,8.062
2022-11-14T07:08:30.014Z,8.062
2022-11-14T07:09:17.284Z,8.062
2022-11-14T07:10:17.666Z,8.072
2022-11-14T07:11:18.612Z,8.062
2022-11-14T07:12:18.206Z,8.062
2022-11-14T07:13:18.679Z,8.062
2022-11-14T07:14:17.960Z,8.062
2022-11-14T07:15:18.662Z,8.072
2022-11-14T07:16:17.831Z,8.114
2022-11-14T07:17:18.269Z,8.072
2022-11-14T07:18:17.557Z,8.104
2022-11-14T07:19:18.112Z,8.125
2022-11-14T07:20:59.095Z,8.125
2022-11-14T07:21:17.256Z,8.125
2022-11-14T07:22:17.865Z,8.125
2022-11-14T07:23:22.668Z,8.114
2022-11-14T07:24:17.804Z,8.114
2022-11-14T07:25:18.184Z,8.125
2022-11-14T07:26:17.868Z,8.125
2022-11-14T07:27:18.779Z,8.125
2022-11-14T07:28:18.523Z,8.166
2022-11-14T07:29:18.685Z,8.187
2022-11-14T07:30:18.750Z,8.199
2022-11-14T07:31:18.187Z,8.187
2022-11-14T07:32:17.959Z,8.187
2022-11-14T07:33:18.751Z,8.169
2022-11-14T07:34:18.255Z,8.125
2022-11-14T07:35:18.125Z,8.125
2022-11-14T07:36:17.911Z,8.187
2022-11-14T07:37:18.269Z,8.187
2022-11-14T07:38:17.584Z,8.187
2022-11-14T07:39:18.420Z,8.187
2022-11-14T07:40:18.109Z,8.187
2022-11-14T07:41:18.752Z,8.187
2022-11-14T07:42:18.078Z,8.187
2022-11-14T07:43:17.800Z,8.197
2022-11-14T07:44:18.278Z,8.208
2022-11-14T07:45:17.679Z,8.249
2022-11-14T07:46:18.251Z,8.270
2022-11-14T07:47:17.657Z,8.281
2022-11-14T07:48:18.115Z,8.312
2022-11-14T07:49:17.187Z,8.270
2022-11-14T07:50:20.779Z,8.291
2022-11-14T07:51:18.444Z,8.312
2022-11-14T07:52:17.642Z,8.312
2022-11-14T07:53:17.967Z,8.354
2022-11-14T07:54:18.078Z,8.375
2022-11-14T07:55:17.586Z,8.375
2022-11-14T07:56:17.798Z,8.375
2022-11-14T07:57:18.133Z,8.375
2022-11-14T07:58:17.560Z,8.375
2022-11-14T07:59:18.894Z,8.426
2022-11-14T08:00:19.140Z,8.375
2022-11-14T08:01:17.581Z,8.385
2022-11-14T08:02:17.921Z,8.426
2022-11-14T08:03:18.163Z,8.437
2022-11-14T08:04:17.371Z,8.437
2022-11-14T08:05:17.303Z,8.447
2022-11-14T08:06:17.199Z,8.468
2022-11-14T08:07:22.373Z,8.479
2022-11-14T08:08:17.809Z,8.5
2022-11-14T08:09:19.555Z,8.489
2022-11-14T08:10:17.358Z,8.458
2022-11-14T08:11:34.350Z,8.479
2022-11-14T08:12:17.164Z,8.479
2022-11-14T08:13:37.968Z,8.5
2022-11-14T08:14:17.893Z,8.5
2022-11-14T08:15:18.142Z,8.5
2022-11-14T08:16:19.715Z,8.5
2022-11-14T08:17:17.878Z,8.5
2022-11-14T08:18:17.715Z,8.5
2022-11-14T08:19:17.897Z,8.5
2022-11-14T08:20:17.792Z,8.562
2022-11-14T08:21:17.685Z,8.562
2022-11-14T08:22:17.305Z,8.562
2022-11-14T08:23:17.316Z,8.562
2022-11-14T08:24:17.364Z,8.562
2022-11-14T08:25:31.130Z,8.562
2022-11-14T08:26:17.334Z,8.562
2022-11-14T08:27:17.584Z,8.551
2022-11-14T08:28:17.476Z,8.551
2022-11-14T08:29:17.577Z,8.551
2022-11-14T08:30:17.399Z,8.562
2022-11-14T08:31:17.264Z,8.562
2022-11-14T08:32:17.406Z,8.562
2022-11-14T08:33:17.468Z,8.562
2022-11-14T08:34:17.548Z,8.562
2022-11-14T08:35:17.961Z,8.562
2022-11-14T08:36:17.742Z,8.562
2022-11-14T08:37:17.779Z,8.572
2022-11-14T08:38:17.411Z,8.583
2022-11-14T08:39:17.547Z,8.583
2022-11-14T08:40:17.737Z,8.562
2022-11-14T08:41:17.359Z,8.625
2022-11-14T08:42:17.163Z,8.625
2022-11-14T08:43:17.159Z,8.625
2022-11-14T08:44:17.434Z,8.625
2022-11-14T08:45:17.579Z,8.625
2022-11-14T08:46:19.667Z,8.625
2022-11-14T08:47:19.618Z,8.625
2022-11-14T08:48:17.746Z,8.625
2022-11-14T08:49:17.523Z,8.625
2022-11-14T08:50:17.177Z,8.625
2022-11-14T08:51:17.068Z,8.645
2022-11-14T08:53:17.743Z,8.676
2022-11-14T08:54:17.883Z,8.687
2022-11-14T08:55:18.015Z,8.687
2022-11-14T08:56:17.015Z,8.687
2022-11-14T08:57:16.761Z,8.687
2022-11-14T08:58:17.696Z,8.676
2022-11-14T08:59:19.568Z,8.687
2022-11-14T09:00:18.309Z,8.687
2022-11-14T09:01:16.884Z,8.687
2022-11-14T09:02:17.911Z,8.666
2022-11-14T09:03:17.893Z,8.666
2022-11-14T09:04:17.997Z,8.687
2022-11-14T09:05:17.890Z,8.687
2022-11-14T09:06:18.458Z,8.687
2022-11-14T09:07:17.247Z,8.687
2022-11-14T09:08:17.451Z,8.687
2022-11-14T09:09:17.512Z,8.687
2022-11-14T09:10:17.468Z,8.687
2022-11-14T09:11:20.506Z,8.676
2022-11-14T09:12:17.139Z,8.687
2022-11-14T09:13:17.245Z,8.687
2022-11-14T09:14:17.568Z,8.687
2022-11-14T09:15:17.742Z,8.687
2022-11-14T09:16:17.655Z,8.687
2022-11-14T09:17:17.878Z,8.697
2022-11-14T09:18:17.651Z,8.739
2022-11-14T09:19:50.233Z,8.75
2022-11-14T09:20:17.549Z,8.75
2022-11-14T09:21:17.468Z,8.75
2022-11-14T09:22:17.579Z,8.75
2022-11-14T09:23:17.354Z,8.75
2022-11-14T09:24:17.421Z,8.75
2022-11-14T09:25:17.956Z,8.75
2022-11-14T09:26:18.014Z,8.75
2022-11-14T09:27:17.067Z,8.75
2022-11-14T09:28:17.392Z,8.75
2022-11-14T09:29:17.597Z,8.75
2022-11-14T09:30:17.994Z,8.75
2022-11-14T09:31:17.751Z,8.75
2022-11-14T09:32:18.136Z,8.75
2022-11-14T09:33:19.152Z,8.75
2022-11-14T09:34:17.817Z,8.75
2022-11-14T09:35:17.610Z,8.75
2022-11-14T09:36:17.685Z,8.75
2022-11-14T09:37:17.612Z,8.75
2022-11-14T09:38:17.895Z,8.770
2022-11-14T09:39:17.944Z,8.812
2022-11-14T09:40:18.312Z,8.812
2022-11-14T09:41:18.048Z,8.812
2022-11-14T09:43:17.336Z,8.812
2022-11-14T09:44:20.513Z,8.812
2022-11-14T09:45:18.272Z,8.812
2022-11-14T09:46:18.060Z,8.812
2022-11-14T09:47:21.055Z,8.812
2022-11-14T09:48:18.235Z,8.812
2022-11-14T09:49:17.141Z,8.812
2022-11-14T09:50:20.577Z,8.864
2022-11-14T09:51:17.073Z,8.833
2022-11-14T09:52:16.753Z,8.812
2022-11-14T09:53:18.098Z,8.833
2022-11-14T09:54:17.079Z,8.822
2022-11-14T09:55:17.391Z,8.812
2022-11-14T09:56:17.497Z,8.864
2022-11-14T09:57:17.670Z,8.875
2022-11-14T09:58:17.773Z,8.875
2022-11-14T09:59:17.730Z,8.875
2022-11-14T10:00:18.599Z,8.875
2022-11-14T10:01:17.716Z,8.875
2022-11-14T10:02:18.097Z,8.875
2022-11-14T10:03:17.324Z,8.875
2022-11-14T10:04:17.379Z,8.875
2022-11-14T10:05:17.739Z,8.875
2022-11-14T10:06:17.747Z,8.875
2022-11-14T10:07:18.128Z,8.875
2022-11-14T10:08:17.733Z,8.875
2022-11-14T10:09:17.742Z,8.875
2022-11-14T10:10:18.107Z,8.875
2022-11-14T10:11:17.552Z,8.875
2022-11-14T10:12:17.534Z,8.875
2022-11-14T10:13:17.846Z,8.875
2022-11-14T10:14:18.018Z,8.875
2022-11-14T10:15:17.610Z,8.875
2022-11-14T10:16:17.638Z,8.875
2022-11-14T10:17:18.199Z,8.875
2022-11-14T10:18:17.460Z,8.875
2022-11-14T10:19:17.787Z,8.875
2022-11-14T10:20:18.058Z,8.875
2022-11-14T10:21:17.139Z,8.875
2022-11-14T10:22:16.797Z,8.875
2022-11-14T10:23:17.692Z,8.875
2022-11-14T10:24:17.751Z,8.875
2022-11-14T10:25:18.226Z,8.875
2022-11-14T10:26:17.411Z,8.926
2022-11-14T10:27:17.838Z,8.926
2022-11-14T10:28:17.720Z,8.937
2022-11-14T10:29:17.678Z,8.937
2022-11-14T10:31:17.732Z,8.937
2022-11-14T10:32:17.531Z,8.937
2022-11-14T10:33:17.803Z,8.937
2022-11-14T10:34:17.995Z,8.937
2022-11-14T10:35:17.457Z,8.937
2022-11-14T10:36:18.017Z,8.937
2022-11-14T10:37:17.641Z,8.937
2022-11-14T10:38:18.358Z,8.937
2022-11-14T10:39:17.524Z,8.937
2022-11-14T10:40:31.367Z,8.937
2022-11-14T10:41:55.453Z,8.958
2022-11-14T10:42:31.413Z,8.963
2022-11-14T10:43:17.538Z,8.963
2022-11-14T10:44:17.846Z,8.949
2022-11-14T10:45:18.347Z,8.947
2022-11-14T10:46:17.312Z,8.947
2022-11-14T10:47:17.549Z,8.968
2022-11-14T10:48:17.772Z,8.979
2022-11-14T10:49:18.138Z,9
2022-11-14T10:50:17.415Z,9
2022-11-14T10:51:17.652Z,9
2022-11-14T10:52:17.829Z,9
2022-11-14T10:53:18.016Z,9
2022-11-14T10:54:36.005Z,9
2022-11-14T10:55:17.316Z,9
2022-11-14T10:56:17.456Z,9
2022-11-14T10:57:17.605Z,9
2022-11-14T10:58:17.831Z,9
2022-11-14T10:59:18.213Z,9
2022-11-14T11:00:18.711Z,9
2022-11-14T11:01:17.847Z,9
2022-11-14T11:02:18.070Z,9
2022-11-14T11:03:17.357Z,9
2022-11-14T11:04:17.558Z,9
2022-11-14T11:05:18.029Z,9
2022-11-14T11:06:36.024Z,9
2022-11-14T11:07:17.348Z,9
2022-11-14T11:08:50.980Z,9
2022-11-14T11:09:17.633Z,9
2022-11-14T11:10:17.955Z,9
2022-11-14T11:11:17.879Z,9
2022-11-14T11:12:40.561Z,9.031
2022-11-14T11:13:18.543Z,9.031
2022-11-14T11:14:19.382Z,9.041
2022-11-14T11:15:18.091Z,9.051
2022-11-14T11:16:17.726Z,9.062
2022-11-14T11:17:17.760Z,9.062
2022-11-14T11:18:18.729Z,9.062
2022-11-14T11:19:18.499Z,9.062
2022-11-14T11:20:18.882Z,9.062
2022-11-14T11:21:19.000Z,9.062
2022-11-14T11:22:18.308Z,9.062
2022-11-14T11:23:18.194Z,9.062
2022-11-14T11:24:17.968Z,9.062
2022-11-14T11:25:18.808Z,9.062
2022-11-14T11:26:19.274Z,9.062
2022-11-14T11:27:18.638Z,9.062
2022-11-14T11:28:18.526Z,9.062
2022-11-14T11:29:19.005Z,9.062
2022-11-14T11:30:18.744Z,9.062
2022-11-14T11:31:19.060Z,9.062
2022-11-14T11:32:18.639Z,9.062
2022-11-14T11:33:19.073Z,9.062
2022-11-14T11:34:18.627Z,9.062
2022-11-14T11:35:19.021Z,9.062
2022-11-14T11:36:18.056Z,9.062
2022-11-14T11:37:18.374Z,9.104
2022-11-14T11:38:22.217Z,9.093
2022-11-14T11:39:17.768Z,9.125
2022-11-14T11:40:18.017Z,9.125
2022-11-14T11:42:07.725Z,9.125
2022-11-14T11:42:18.066Z,9.125
2022-11-14T11:43:45.851Z,9.125
2022-11-14T11:44:18.768Z,9.125
2022-11-14T11:45:18.842Z,9.125
2022-11-14T11:46:18.634Z,9.125
2022-11-14T11:47:18.249Z,9.125
2022-11-14T11:48:17.868Z,9.125
2022-11-14T11:49:18.499Z,9.125
2022-11-14T11:50:18.359Z,9.125
2022-11-14T11:51:18.287Z,9.135
2022-11-14T11:52:18.022Z,9.125
2022-11-14T11:53:17.480Z,9.151
2022-11-14T11:54:18.243Z,9.135
2022-11-14T11:55:18.327Z,9.125
2022-11-14T11:56:17.717Z,9.125
2022-11-14T11:57:21.674Z,9.133
2022-11-14T11:58:17.766Z,9.145
2022-11-14T11:59:18.453Z,9.145
2022-11-14T12:00:19.468Z,9.176
2022-11-14T12:01:18.476Z,9.176
2022-11-14T12:02:20.099Z,9.187
2022-11-14T12:03:20.666Z,9.187
2022-11-14T12:04:18.322Z,9.187
2022-11-14T12:05:18.064Z,9.187
2022-11-14T12:06:19.363Z,9.187
2022-11-14T12:07:19.704Z,9.187
2022-11-14T12:09:18.703Z,9.187
2022-11-14T12:10:18.353Z,9.187
2022-11-14T12:11:18.764Z,9.187
2022-11-14T12:12:18.349Z,9.187
2022-11-14T12:13:18.479Z,9.187
2022-11-14T12:14:18.487Z,9.187
2022-11-14T12:15:18.510Z,9.187
2022-11-14T12:16:19.825Z,9.187
2022-11-14T12:17:18.298Z,9.187
2022-11-14T12:18:17.948Z,9.187
2022-11-14T12:19:18.363Z,9.187
2022-11-14T12:20:17.695Z,9.187
2022-11-14T12:21:18.348Z,9.187
2022-11-14T12:22:17.781Z,9.187
2022-11-14T12:23:18.288Z,9.187
2022-11-14T12:24:17.878Z,9.187
2022-11-14T12:25:18.464Z,9.187
2022-11-14T12:26:17.884Z,9.187
2022-11-14T12:27:18.722Z,9.187
2022-11-14T12:28:18.354Z,9.187
2022-11-14T12:29:22.454Z,9.187
2022-11-14T12:30:17.620Z,9.187
2022-11-14T12:31:18.491Z,9.197
2022-11-14T12:32:17.994Z,9.187
2022-11-14T12:33:17.540Z,9.187
2022-11-14T12:34:18.154Z,9.208
2022-11-14T12:35:18.297Z,9.197
2022-11-14T12:36:18.386Z,9.239
2022-11-14T12:37:18.178Z,9.25
2022-11-14T12:38:17.682Z,9.25
2022-11-14T12:39:19.122Z,9.25
2022-11-14T12:40:17.825Z,9.25
2022-11-14T12:41:18.492Z,9.25
2022-11-14T12:42:19.111Z,9.25
2022-11-14T12:43:17.689Z,9.25
2022-11-14T12:44:18.824Z,9.25
2022-11-14T12:45:18.330Z,9.25
2022-11-14T12:46:17.792Z,9.25
2022-11-14T12:47:18.012Z,9.25
2022-11-14T12:48:17.651Z,9.25
2022-11-14T12:49:23.167Z,9.25
2022-11-14T12:50:17.695Z,9.25
2022-11-14T12:51:18.667Z,9.25
2022-11-14T12:52:18.015Z,9.25
2022-11-14T12:53:17.860Z,9.25
2022-11-14T12:54:18.036Z,9.25
2022-11-14T12:55:17.815Z,9.25
2022-11-14T12:56:18.060Z,9.25
2022-11-14T12:57:17.463Z,9.25
2022-11-14T12:58:18.026Z,9.25
2022-11-14T12:59:17.471Z,9.25
2022-11-14T13:00:18.928Z,9.25
2022-11-14T13:01:18.485Z,9.25
2022-11-14T13:02:22.154Z,9.260
2022-11-14T13:03:23.256Z,9.301
2022-11-14T13:04:17.873Z,9.301
2022-11-14T13:05:32.798Z,9.312
2022-11-14T13:06:18.216Z,9.312
2022-11-14T13:07:17.912Z,9.312
2022-11-14T13:08:18.205Z,9.312
2022-11-14T13:09:18.152Z,9.312
2022-11-14T13:10:18.022Z,9.312
2022-11-14T13:11:31.122Z,9.312
2022-11-14T13:12:17.567Z,9.312
2022-11-14T13:13:17.912Z,9.312
2022-11-14T13:14:18.234Z,9.312
2022-11-14T13:15:17.987Z,9.312
2022-11-14T13:16:17.213Z,9.312